sensor_id;sensor_type;location;lat;lon;timestamp;P1;durP1;ratioP1;P2;durP2;ratioP2
25581;SDS011;13462;50.764;4.332;2022-08-19T00:01:17;25.33;;;20.67;;
25581;SDS011;13462;50.764;4.332;2022-08-19T00:03:43;26.35;;;22.77;;
25581;SDS011;13462;50.764;4.332;2022-08-19T00:06:08;29.58;;;23.20;;
25581;SDS011;13462;50.764;4.332;2022-08-19T00:08:35;31.73;;;25.73;;
25581;SDS011;13462;50.764;4.332;2022-08-19T00:11:01;26.45;;;21.85;;
25581;SDS011;13462;50.764;4.332;2022-08-19T00:13:26;31.27;;;22.77;;
25581;SDS011;13462;50.764;4.332;2022-08-19T00:15:53;30.13;;;24.00;;
25581;SDS011;13462;50.764;4.332;2022-08-19T00:18:20;34.75;;;25.35;;
25581;SDS011;13462;50.764;4.332;2022-08-19T00:20:46;35.28;;;24.92;;
25581;SDS011;13462;50.764;4.332;2022-08-19T00:23:12;34.63;;;26.20;;
25581;SDS011;13462;50.764;4.332;2022-08-19T00:25:37;35.95;;;28.02;;
25581;SDS011;13462;50.764;4.332;2022-08-19T00:28:04;42.03;;;32.97;;
25581;SDS011;13462;50.764;4.332;2022-08-19T00:30:30;46.70;;;31.77;;
25581;SDS011;13462;50.764;4.332;2022-08-19T00:32:56;43.15;;;31.73;;
25581;SDS011;13462;50.764;4.332;2022-08-19T00:35:22;48.78;;;35.38;;
25581;SDS011;13462;50.764;4.332;2022-08-19T00:37:49;49.85;;;32.28;;
25581;SDS011;13462;50.764;4.332;2022-08-19T00:40:15;50.22;;;35.40;;
25581;SDS011;13462;50.764;4.332;2022-08-19T00:42:42;48.13;;;32.75;;
25581;SDS011;13462;50.764;4.332;2022-08-19T00:45:09;46.03;;;33.65;;
25581;SDS011;13462;50.764;4.332;2022-08-19T00:47:38;46.70;;;32.35;;
25581;SDS011;13462;50.764;4.332;2022-08-19T00:50:04;43.05;;;32.15;;
25581;SDS011;13462;50.764;4.332;2022-08-19T00:52:33;45.83;;;32.03;;
25581;SDS011;13462;50.764;4.332;2022-08-19T00:55:03;48.72;;;35.10;;
25581;SDS011;13462;50.764;4.332;2022-08-19T00:57:34;51.42;;;36.72;;
25581;SDS011;13462;50.764;4.332;2022-08-19T01:00:04;53.03;;;38.28;;
25581;SDS011;13462;50.764;4.332;2022-08-19T01:02:35;50.30;;;36.80;;
25581;SDS011;13462;50.764;4.332;2022-08-19T01:05:01;58.45;;;39.70;;
25581;SDS011;13462;50.764;4.332;2022-08-19T01:07:31;54.83;;;38.15;;
25581;SDS011;13462;50.764;4.332;2022-08-19T01:09:57;57.60;;;40.15;;
25581;SDS011;13462;50.764;4.332;2022-08-19T01:12:24;54.15;;;38.20;;
25581;SDS011;13462;50.764;4.332;2022-08-19T01:14:50;56.15;;;38.42;;
25581;SDS011;13462;50.764;4.332;2022-08-19T01:17:17;53.83;;;38.38;;
25581;SDS011;13462;50.764;4.332;2022-08-19T01:19:44;54.33;;;38.30;;
25581;SDS011;13462;50.764;4.332;2022-08-19T01:22:12;53.50;;;37.17;;
25581;SDS011;13462;50.764;4.332;2022-08-19T01:24:49;52.97;;;36.08;;
25581;SDS011;13462;50.764;4.332;2022-08-19T01:27:16;53.88;;;38.30;;
25581;SDS011;13462;50.764;4.332;2022-08-19T01:29:43;58.60;;;40.38;;
25581;SDS011;13462;50.764;4.332;2022-08-19T01:32:14;53.70;;;37.17;;
25581;SDS011;13462;50.764;4.332;2022-08-19T01:37:12;55.50;;;36.70;;
25581;SDS011;13462;50.764;4.332;2022-08-19T01:39:40;56.38;;;38.97;;
25581;SDS011;13462;50.764;4.332;2022-08-19T01:42:07;60.10;;;40.83;;
25581;SDS011;13462;50.764;4.332;2022-08-19T01:44:35;56.00;;;39.53;;
25581;SDS011;13462;50.764;4.332;2022-08-19T01:47:01;58.72;;;39.88;;
25581;SDS011;13462;50.764;4.332;2022-08-19T01:49:27;56.22;;;38.40;;
25581;SDS011;13462;50.764;4.332;2022-08-19T01:51:53;60.13;;;41.30;;
25581;SDS011;13462;50.764;4.332;2022-08-19T01:54:21;63.42;;;41.85;;
25581;SDS011;13462;50.764;4.332;2022-08-19T01:56:48;65.25;;;40.42;;
25581;SDS011;13462;50.764;4.332;2022-08-19T01:59:16;56.03;;;39.28;;
25581;SDS011;13462;50.764;4.332;2022-08-19T02:01:45;59.30;;;41.45;;
25581;SDS011;13462;50.764;4.332;2022-08-19T02:04:11;61.78;;;41.38;;
25581;SDS011;13462;50.764;4.332;2022-08-19T02:06:37;60.58;;;38.95;;
25581;SDS011;13462;50.764;4.332;2022-08-19T02:09:05;56.03;;;39.20;;
25581;SDS011;13462;50.764;4.332;2022-08-19T02:11:34;53.78;;;36.72;;
25581;SDS011;13462;50.764;4.332;2022-08-19T02:14:02;56.58;;;38.00;;
25581;SDS011;13462;50.764;4.332;2022-08-19T02:16:30;57.03;;;37.83;;
25581;SDS011;13462;50.764;4.332;2022-08-19T02:18:57;60.10;;;37.92;;
25581;SDS011;13462;50.764;4.332;2022-08-19T02:21:27;56.33;;;38.25;;
25581;SDS011;13462;50.764;4.332;2022-08-19T02:23:54;55.30;;;36.17;;
25581;SDS011;13462;50.764;4.332;2022-08-19T02:26:20;52.38;;;34.95;;
25581;SDS011;13462;50.764;4.332;2022-08-19T02:28:46;56.08;;;36.63;;
25581;SDS011;13462;50.764;4.332;2022-08-19T02:31:16;52.78;;;35.45;;
25581;SDS011;13462;50.764;4.332;2022-08-19T02:33:43;54.53;;;35.67;;
25581;SDS011;13462;50.764;4.332;2022-08-19T02:36:10;56.28;;;35.25;;
25581;SDS011;13462;50.764;4.332;2022-08-19T02:38:37;54.47;;;34.95;;
25581;SDS011;13462;50.764;4.332;2022-08-19T02:41:07;58.58;;;35.30;;
25581;SDS011;13462;50.764;4.332;2022-08-19T02:43:37;52.10;;;34.13;;
25581;SDS011;13462;50.764;4.332;2022-08-19T02:46:12;54.42;;;32.22;;
25581;SDS011;13462;50.764;4.332;2022-08-19T02:48:39;47.83;;;31.33;;
25581;SDS011;13462;50.764;4.332;2022-08-19T02:51:05;48.25;;;30.67;;
25581;SDS011;13462;50.764;4.332;2022-08-19T02:53:31;50.25;;;31.38;;
25581;SDS011;13462;50.764;4.332;2022-08-19T02:55:57;53.47;;;31.98;;
25581;SDS011;13462;50.764;4.332;2022-08-19T02:58:22;56.58;;;33.40;;
25581;SDS011;13462;50.764;4.332;2022-08-19T03:00:50;52.10;;;32.20;;
25581;SDS011;13462;50.764;4.332;2022-08-19T03:03:18;50.90;;;31.40;;
25581;SDS011;13462;50.764;4.332;2022-08-19T03:05:44;46.95;;;30.60;;
25581;SDS011;13462;50.764;4.332;2022-08-19T03:08:11;48.00;;;31.27;;
25581;SDS011;13462;50.764;4.332;2022-08-19T03:10:41;55.08;;;34.55;;
25581;SDS011;13462;50.764;4.332;2022-08-19T03:15:38;51.75;;;32.22;;
25581;SDS011;13462;50.764;4.332;2022-08-19T03:18:05;53.70;;;32.67;;
25581;SDS011;13462;50.764;4.332;2022-08-19T03:20:31;54.28;;;32.90;;
25581;SDS011;13462;50.764;4.332;2022-08-19T03:22:57;52.45;;;32.10;;
25581;SDS011;13462;50.764;4.332;2022-08-19T03:25:23;55.25;;;32.83;;
25581;SDS011;13462;50.764;4.332;2022-08-19T03:27:49;63.22;;;36.05;;
25581;SDS011;13462;50.764;4.332;2022-08-19T03:30:15;64.20;;;35.42;;
25581;SDS011;13462;50.764;4.332;2022-08-19T03:32:41;60.75;;;35.63;;
25581;SDS011;13462;50.764;4.332;2022-08-19T03:35:06;63.78;;;37.35;;
25581;SDS011;13462;50.764;4.332;2022-08-19T03:37:32;55.72;;;34.97;;
25581;SDS011;13462;50.764;4.332;2022-08-19T03:39:58;60.80;;;34.53;;
25581;SDS011;13462;50.764;4.332;2022-08-19T03:42:24;59.25;;;35.47;;
25581;SDS011;13462;50.764;4.332;2022-08-19T03:44:51;58.05;;;32.67;;
25581;SDS011;13462;50.764;4.332;2022-08-19T03:47:17;63.97;;;36.03;;
25581;SDS011;13462;50.764;4.332;2022-08-19T03:49:44;57.92;;;33.53;;
25581;SDS011;13462;50.764;4.332;2022-08-19T03:52:10;61.97;;;34.85;;
25581;SDS011;13462;50.764;4.332;2022-08-19T03:54:35;62.58;;;35.92;;
25581;SDS011;13462;50.764;4.332;2022-08-19T03:57:03;63.88;;;35.88;;
25581;SDS011;13462;50.764;4.332;2022-08-19T03:59:30;64.38;;;38.00;;
25581;SDS011;13462;50.764;4.332;2022-08-19T04:02:00;68.95;;;37.15;;
25581;SDS011;13462;50.764;4.332;2022-08-19T04:04:28;66.57;;;37.50;;
25581;SDS011;13462;50.764;4.332;2022-08-19T04:06:54;71.93;;;39.60;;
25581;SDS011;13462;50.764;4.332;2022-08-19T04:09:21;77.60;;;39.70;;
25581;SDS011;13462;50.764;4.332;2022-08-19T04:11:48;79.75;;;41.30;;
25581;SDS011;13462;50.764;4.332;2022-08-19T04:14:19;77.03;;;41.22;;
25581;SDS011;13462;50.764;4.332;2022-08-19T04:16:47;82.72;;;42.08;;
25581;SDS011;13462;50.764;4.332;2022-08-19T04:19:14;78.10;;;40.60;;
25581;SDS011;13462;50.764;4.332;2022-08-19T04:21:43;73.60;;;39.53;;
25581;SDS011;13462;50.764;4.332;2022-08-19T04:24:10;78.05;;;41.88;;
25581;SDS011;13462;50.764;4.332;2022-08-19T04:26:36;80.28;;;41.28;;
25581;SDS011;13462;50.764;4.332;2022-08-19T04:29:05;75.22;;;38.33;;
25581;SDS011;13462;50.764;4.332;2022-08-19T04:31:33;79.82;;;38.97;;
25581;SDS011;13462;50.764;4.332;2022-08-19T04:34:01;79.78;;;38.20;;
25581;SDS011;13462;50.764;4.332;2022-08-19T04:36:31;67.85;;;38.10;;
25581;SDS011;13462;50.764;4.332;2022-08-19T04:39:00;73.25;;;36.40;;
25581;SDS011;13462;50.764;4.332;2022-08-19T04:41:30;73.90;;;39.67;;
25581;SDS011;13462;50.764;4.332;2022-08-19T04:44:14;80.53;;;41.55;;
25581;SDS011;13462;50.764;4.332;2022-08-19T04:46:43;79.53;;;38.92;;
25581;SDS011;13462;50.764;4.332;2022-08-19T04:49:10;80.47;;;42.13;;
25581;SDS011;13462;50.764;4.332;2022-08-19T04:51:36;86.85;;;43.22;;
25581;SDS011;13462;50.764;4.332;2022-08-19T04:54:07;78.00;;;38.67;;
25581;SDS011;13462;50.764;4.332;2022-08-19T04:56:33;78.45;;;38.38;;
25581;SDS011;13462;50.764;4.332;2022-08-19T04:58:59;87.95;;;41.55;;
25581;SDS011;13462;50.764;4.332;2022-08-19T05:01:29;75.18;;;39.17;;
25581;SDS011;13462;50.764;4.332;2022-08-19T05:03:57;75.35;;;37.67;;
25581;SDS011;13462;50.764;4.332;2022-08-19T05:06:25;74.97;;;38.75;;
25581;SDS011;13462;50.764;4.332;2022-08-19T05:08:51;67.30;;;36.95;;
25581;SDS011;13462;50.764;4.332;2022-08-19T05:11:21;72.85;;;38.22;;
25581;SDS011;13462;50.764;4.332;2022-08-19T05:13:49;70.82;;;38.47;;
25581;SDS011;13462;50.764;4.332;2022-08-19T05:16:17;68.60;;;36.13;;
25581;SDS011;13462;50.764;4.332;2022-08-19T05:18:44;74.55;;;36.25;;
25581;SDS011;13462;50.764;4.332;2022-08-19T05:21:37;73.18;;;35.97;;
25581;SDS011;13462;50.764;4.332;2022-08-19T05:24:24;59.47;;;32.22;;
25581;SDS011;13462;50.764;4.332;2022-08-19T05:26:50;63.42;;;34.00;;
25581;SDS011;13462;50.764;4.332;2022-08-19T05:29:19;64.30;;;33.38;;
25581;SDS011;13462;50.764;4.332;2022-08-19T05:31:46;62.08;;;33.42;;
25581;SDS011;13462;50.764;4.332;2022-08-19T05:34:16;62.88;;;33.80;;
25581;SDS011;13462;50.764;4.332;2022-08-19T05:36:46;57.10;;;30.63;;
25581;SDS011;13462;50.764;4.332;2022-08-19T05:39:15;51.28;;;29.85;;
25581;SDS011;13462;50.764;4.332;2022-08-19T05:41:43;54.03;;;30.55;;
25581;SDS011;13462;50.764;4.332;2022-08-19T05:44:17;48.45;;;28.60;;
25581;SDS011;13462;50.764;4.332;2022-08-19T05:46:46;46.45;;;28.10;;
25581;SDS011;13462;50.764;4.332;2022-08-19T05:49:13;45.60;;;27.63;;
25581;SDS011;13462;50.764;4.332;2022-08-19T05:51:40;41.28;;;24.98;;
25581;SDS011;13462;50.764;4.332;2022-08-19T05:54:07;39.47;;;24.13;;
25581;SDS011;13462;50.764;4.332;2022-08-19T05:56:34;36.78;;;22.70;;
25581;SDS011;13462;50.764;4.332;2022-08-19T05:59:03;36.40;;;22.48;;
25581;SDS011;13462;50.764;4.332;2022-08-19T06:01:33;36.92;;;20.67;;
25581;SDS011;13462;50.764;4.332;2022-08-19T06:04:00;29.42;;;18.60;;
25581;SDS011;13462;50.764;4.332;2022-08-19T06:06:26;30.38;;;18.08;;
25581;SDS011;13462;50.764;4.332;2022-08-19T06:08:52;23.90;;;15.45;;
25581;SDS011;13462;50.764;4.332;2022-08-19T06:11:19;26.75;;;17.83;;
25581;SDS011;13462;50.764;4.332;2022-08-19T06:16:26;24.63;;;15.70;;
25581;SDS011;13462;50.764;4.332;2022-08-19T06:18:54;20.20;;;14.52;;
25581;SDS011;13462;50.764;4.332;2022-08-19T06:21:23;22.25;;;12.93;;
25581;SDS011;13462;50.764;4.332;2022-08-19T06:23:50;20.75;;;13.50;;
25581;SDS011;13462;50.764;4.332;2022-08-19T06:26:17;18.88;;;12.52;;
25581;SDS011;13462;50.764;4.332;2022-08-19T06:28:44;15.55;;;11.38;;
25581;SDS011;13462;50.764;4.332;2022-08-19T06:31:18;17.13;;;11.57;;
25581;SDS011;13462;50.764;4.332;2022-08-19T06:33:46;15.52;;;10.52;;
25581;SDS011;13462;50.764;4.332;2022-08-19T06:36:17;16.35;;;11.70;;
25581;SDS011;13462;50.764;4.332;2022-08-19T06:38:49;18.55;;;11.20;;
25581;SDS011;13462;50.764;4.332;2022-08-19T06:41:15;15.82;;;10.68;;
25581;SDS011;13462;50.764;4.332;2022-08-19T06:43:41;16.55;;;10.38;;
25581;SDS011;13462;50.764;4.332;2022-08-19T06:46:13;14.43;;;9.52;;
25581;SDS011;13462;50.764;4.332;2022-08-19T06:48:41;16.60;;;10.52;;
25581;SDS011;13462;50.764;4.332;2022-08-19T06:51:07;18.27;;;10.85;;
25581;SDS011;13462;50.764;4.332;2022-08-19T06:53:33;16.27;;;11.05;;
25581;SDS011;13462;50.764;4.332;2022-08-19T06:55:59;19.33;;;11.82;;
25581;SDS011;13462;50.764;4.332;2022-08-19T06:58:28;22.50;;;12.38;;
25581;SDS011;13462;50.764;4.332;2022-08-19T07:00:57;17.05;;;12.80;;
25581;SDS011;13462;50.764;4.332;2022-08-19T07:03:27;22.52;;;12.52;;
25581;SDS011;13462;50.764;4.332;2022-08-19T07:06:02;23.10;;;13.80;;
25581;SDS011;13462;50.764;4.332;2022-08-19T07:08:29;18.42;;;13.30;;
25581;SDS011;13462;50.764;4.332;2022-08-19T07:10:55;23.60;;;13.75;;
25581;SDS011;13462;50.764;4.332;2022-08-19T07:13:21;21.38;;;13.57;;
25581;SDS011;13462;50.764;4.332;2022-08-19T07:15:47;25.02;;;14.25;;
25581;SDS011;13462;50.764;4.332;2022-08-19T07:18:15;21.75;;;13.82;;
25581;SDS011;13462;50.764;4.332;2022-08-19T07:20:42;24.20;;;13.80;;
25581;SDS011;13462;50.764;4.332;2022-08-19T07:23:08;20.10;;;12.50;;
25581;SDS011;13462;50.764;4.332;2022-08-19T07:25:36;20.08;;;13.30;;
25581;SDS011;13462;50.764;4.332;2022-08-19T07:28:03;15.98;;;11.00;;
25581;SDS011;13462;50.764;4.332;2022-08-19T07:30:29;19.05;;;12.68;;
25581;SDS011;13462;50.764;4.332;2022-08-19T07:32:55;18.45;;;11.93;;
25581;SDS011;13462;50.764;4.332;2022-08-19T07:35:21;20.80;;;13.73;;
25581;SDS011;13462;50.764;4.332;2022-08-19T07:37:48;18.75;;;12.32;;
25581;SDS011;13462;50.764;4.332;2022-08-19T07:40:14;16.48;;;11.20;;
25581;SDS011;13462;50.764;4.332;2022-08-19T07:42:41;19.50;;;12.25;;
25581;SDS011;13462;50.764;4.332;2022-08-19T07:45:07;16.40;;;11.75;;
25581;SDS011;13462;50.764;4.332;2022-08-19T07:47:34;16.10;;;10.68;;
25581;SDS011;13462;50.764;4.332;2022-08-19T07:50:00;16.25;;;10.55;;
25581;SDS011;13462;50.764;4.332;2022-08-19T07:52:26;13.43;;;9.18;;
25581;SDS011;13462;50.764;4.332;2022-08-19T07:54:51;13.85;;;8.50;;
25581;SDS011;13462;50.764;4.332;2022-08-19T07:57:17;10.10;;;8.38;;
25581;SDS011;13462;50.764;4.332;2022-08-19T07:59:44;16.05;;;8.70;;
25581;SDS011;13462;50.764;4.332;2022-08-19T08:02:10;10.32;;;6.95;;
25581;SDS011;13462;50.764;4.332;2022-08-19T08:04:35;9.77;;;7.97;;
25581;SDS011;13462;50.764;4.332;2022-08-19T08:07:20;9.88;;;7.13;;
25581;SDS011;13462;50.764;4.332;2022-08-19T08:10:05;10.55;;;7.10;;
25581;SDS011;13462;50.764;4.332;2022-08-19T08:12:36;11.98;;;7.30;;
25581;SDS011;13462;50.764;4.332;2022-08-19T08:15:09;11.57;;;7.20;;
25581;SDS011;13462;50.764;4.332;2022-08-19T08:17:41;11.07;;;7.10;;
25581;SDS011;13462;50.764;4.332;2022-08-19T08:20:07;11.90;;;8.00;;
25581;SDS011;13462;50.764;4.332;2022-08-19T08:22:34;12.07;;;7.50;;
25581;SDS011;13462;50.764;4.332;2022-08-19T08:25:19;11.32;;;8.48;;
25581;SDS011;13462;50.764;4.332;2022-08-19T08:27:47;12.43;;;7.70;;
25581;SDS011;13462;50.764;4.332;2022-08-19T08:30:18;11.35;;;7.90;;
25581;SDS011;13462;50.764;4.332;2022-08-19T08:32:46;12.20;;;8.07;;
25581;SDS011;13462;50.764;4.332;2022-08-19T08:35:14;11.30;;;7.65;;
25581;SDS011;13462;50.764;4.332;2022-08-19T08:37:41;10.98;;;6.90;;
25581;SDS011;13462;50.764;4.332;2022-08-19T08:40:28;12.38;;;7.63;;
25581;SDS011;13462;50.764;4.332;2022-08-19T08:43:28;11.13;;;7.68;;
25581;SDS011;13462;50.764;4.332;2022-08-19T08:46:15;12.60;;;8.02;;
25581;SDS011;13462;50.764;4.332;2022-08-19T08:55:00;16.17;;;8.18;;
25581;SDS011;13462;50.764;4.332;2022-08-19T08:57:35;9.25;;;8.10;;
25581;SDS011;13462;50.764;4.332;2022-08-19T09:00:26;15.68;;;8.10;;
25581;SDS011;13462;50.764;4.332;2022-08-19T09:05:22;13.80;;;7.93;;
25581;SDS011;13462;50.764;4.332;2022-08-19T09:10:44;11.15;;;7.50;;
25581;SDS011;13462;50.764;4.332;2022-08-19T09:16:11;14.38;;;7.78;;
25581;SDS011;13462;50.764;4.332;2022-08-19T09:18:44;14.32;;;7.93;;
25581;SDS011;13462;50.764;4.332;2022-08-19T09:21:17;10.68;;;7.68;;
25581;SDS011;13462;50.764;4.332;2022-08-19T09:23:43;13.40;;;7.95;;
25581;SDS011;13462;50.764;4.332;2022-08-19T09:26:13;9.52;;;7.13;;
25581;SDS011;13462;50.764;4.332;2022-08-19T09:28:40;11.65;;;8.20;;
25581;SDS011;13462;50.764;4.332;2022-08-19T09:31:11;10.10;;;6.72;;
25581;SDS011;13462;50.764;4.332;2022-08-19T09:33:38;10.68;;;6.55;;
25581;SDS011;13462;50.764;4.332;2022-08-19T09:36:08;10.95;;;7.82;;
25581;SDS011;13462;50.764;4.332;2022-08-19T09:38:36;14.05;;;7.38;;
25581;SDS011;13462;50.764;4.332;2022-08-19T09:41:05;11.77;;;7.68;;
25581;SDS011;13462;50.764;4.332;2022-08-19T09:43:39;10.48;;;7.68;;
25581;SDS011;13462;50.764;4.332;2022-08-19T09:46:07;10.55;;;7.35;;
25581;SDS011;13462;50.764;4.332;2022-08-19T09:48:40;10.98;;;6.55;;
25581;SDS011;13462;50.764;4.332;2022-08-19T09:51:11;10.32;;;6.53;;
25581;SDS011;13462;50.764;4.332;2022-08-19T09:53:40;7.82;;;6.63;;
25581;SDS011;13462;50.764;4.332;2022-08-19T09:56:06;9.30;;;7.15;;
25581;SDS011;13462;50.764;4.332;2022-08-19T09:58:32;13.07;;;7.70;;
25581;SDS011;13462;50.764;4.332;2022-08-19T10:00:59;10.88;;;7.78;;
25581;SDS011;13462;50.764;4.332;2022-08-19T10:03:28;10.77;;;7.97;;
25581;SDS011;13462;50.764;4.332;2022-08-19T10:05:55;12.73;;;10.00;;
25581;SDS011;13462;50.764;4.332;2022-08-19T10:08:27;12.57;;;8.35;;
25581;SDS011;13462;50.764;4.332;2022-08-19T10:10:55;12.50;;;7.97;;
25581;SDS011;13462;50.764;4.332;2022-08-19T10:13:24;12.10;;;8.15;;
25581;SDS011;13462;50.764;4.332;2022-08-19T10:15:56;12.25;;;8.25;;
25581;SDS011;13462;50.764;4.332;2022-08-19T10:18:27;11.15;;;8.20;;
25581;SDS011;13462;50.764;4.332;2022-08-19T10:21:01;13.82;;;8.27;;
25581;SDS011;13462;50.764;4.332;2022-08-19T10:23:33;14.75;;;9.05;;
25581;SDS011;13462;50.764;4.332;2022-08-19T10:26:01;11.68;;;8.73;;
25581;SDS011;13462;50.764;4.332;2022-08-19T10:28:31;13.32;;;8.85;;
25581;SDS011;13462;50.764;4.332;2022-08-19T10:31:01;14.68;;;9.65;;
25581;SDS011;13462;50.764;4.332;2022-08-19T10:33:36;16.20;;;9.90;;
25581;SDS011;13462;50.764;4.332;2022-08-19T10:36:03;14.05;;;9.10;;
25581;SDS011;13462;50.764;4.332;2022-08-19T10:38:31;13.07;;;10.30;;
25581;SDS011;13462;50.764;4.332;2022-08-19T10:41:06;14.27;;;10.27;;
25581;SDS011;13462;50.764;4.332;2022-08-19T10:43:33;13.45;;;9.90;;
25581;SDS011;13462;50.764;4.332;2022-08-19T10:46:02;12.45;;;10.13;;
25581;SDS011;13462;50.764;4.332;2022-08-19T10:48:29;14.68;;;10.57;;
25581;SDS011;13462;50.764;4.332;2022-08-19T10:50:56;15.23;;;10.45;;
25581;SDS011;13462;50.764;4.332;2022-08-19T10:53:41;13.75;;;10.00;;
25581;SDS011;13462;50.764;4.332;2022-08-19T10:56:06;13.55;;;9.40;;
25581;SDS011;13462;50.764;4.332;2022-08-19T10:58:51;16.38;;;9.98;;
25581;SDS011;13462;50.764;4.332;2022-08-19T11:01:16;16.58;;;8.95;;
25581;SDS011;13462;50.764;4.332;2022-08-19T11:03:42;14.85;;;10.35;;
25581;SDS011;13462;50.764;4.332;2022-08-19T11:06:10;15.75;;;11.32;;
25581;SDS011;13462;50.764;4.332;2022-08-19T11:08:36;20.88;;;10.98;;
25581;SDS011;13462;50.764;4.332;2022-08-19T11:11:02;13.30;;;10.75;;
25581;SDS011;13462;50.764;4.332;2022-08-19T11:13:30;13.93;;;10.60;;
25581;SDS011;13462;50.764;4.332;2022-08-19T11:16:17;12.32;;;9.13;;
25581;SDS011;13462;50.764;4.332;2022-08-19T11:18:47;13.68;;;10.38;;
25581;SDS011;13462;50.764;4.332;2022-08-19T11:21:15;14.73;;;9.45;;
25581;SDS011;13462;50.764;4.332;2022-08-19T11:23:53;14.07;;;8.63;;
25581;SDS011;13462;50.764;4.332;2022-08-19T11:26:22;11.10;;;8.77;;
25581;SDS011;13462;50.764;4.332;2022-08-19T11:28:49;13.25;;;9.40;;
25581;SDS011;13462;50.764;4.332;2022-08-19T11:31:20;11.50;;;8.98;;
25581;SDS011;13462;50.764;4.332;2022-08-19T11:33:47;11.48;;;8.68;;
25581;SDS011;13462;50.764;4.332;2022-08-19T11:36:17;13.02;;;9.15;;
25581;SDS011;13462;50.764;4.332;2022-08-19T11:38:46;12.38;;;8.60;;
25581;SDS011;13462;50.764;4.332;2022-08-19T11:41:15;13.75;;;9.35;;
25581;SDS011;13462;50.764;4.332;2022-08-19T11:43:43;9.50;;;7.68;;
25581;SDS011;13462;50.764;4.332;2022-08-19T11:46:09;13.85;;;8.27;;
25581;SDS011;13462;50.764;4.332;2022-08-19T11:48:38;10.70;;;7.82;;
25581;SDS011;13462;50.764;4.332;2022-08-19T11:51:06;8.95;;;8.07;;
25581;SDS011;13462;50.764;4.332;2022-08-19T11:53:37;9.90;;;7.22;;
25581;SDS011;13462;50.764;4.332;2022-08-19T11:56:04;11.90;;;7.55;;
25581;SDS011;13462;50.764;4.332;2022-08-19T11:58:31;11.30;;;7.55;;
25581;SDS011;13462;50.764;4.332;2022-08-19T12:00:56;10.15;;;7.55;;
25581;SDS011;13462;50.764;4.332;2022-08-19T12:03:22;11.27;;;6.57;;
25581;SDS011;13462;50.764;4.332;2022-08-19T12:05:48;7.70;;;6.63;;
25581;SDS011;13462;50.764;4.332;2022-08-19T12:08:15;11.13;;;6.57;;
25581;SDS011;13462;50.764;4.332;2022-08-19T12:10:41;7.32;;;5.55;;
25581;SDS011;13462;50.764;4.332;2022-08-19T12:13:08;6.30;;;4.88;;
25581;SDS011;13462;50.764;4.332;2022-08-19T12:15:35;5.22;;;4.32;;
25581;SDS011;13462;50.764;4.332;2022-08-19T12:18:02;7.35;;;4.40;;
25581;SDS011;13462;50.764;4.332;2022-08-19T12:20:29;3.67;;;3.25;;
25581;SDS011;13462;50.764;4.332;2022-08-19T12:22:55;5.43;;;3.60;;
25581;SDS011;13462;50.764;4.332;2022-08-19T12:25:21;4.00;;;3.63;;
25581;SDS011;13462;50.764;4.332;2022-08-19T12:27:47;6.90;;;3.30;;
25581;SDS011;13462;50.764;4.332;2022-08-19T12:30:14;7.43;;;3.75;;
25581;SDS011;13462;50.764;4.332;2022-08-19T12:32:40;7.32;;;3.80;;
25581;SDS011;13462;50.764;4.332;2022-08-19T12:35:06;4.72;;;3.85;;
25581;SDS011;13462;50.764;4.332;2022-08-19T12:37:34;4.68;;;3.85;;
25581;SDS011;13462;50.764;4.332;2022-08-19T12:40:00;3.63;;;3.33;;
25581;SDS011;13462;50.764;4.332;2022-08-19T12:42:27;4.57;;;4.18;;
25581;SDS011;13462;50.764;4.332;2022-08-19T12:44:53;4.25;;;3.88;;
25581;SDS011;13462;50.764;4.332;2022-08-19T12:47:19;4.28;;;3.55;;
25581;SDS011;13462;50.764;4.332;2022-08-19T12:49:46;7.20;;;4.53;;
25581;SDS011;13462;50.764;4.332;2022-08-19T12:52:12;5.28;;;3.22;;
25581;SDS011;13462;50.764;4.332;2022-08-19T12:54:41;4.90;;;3.10;;
25581;SDS011;13462;50.764;4.332;2022-08-19T12:57:08;10.05;;;3.28;;
25581;SDS011;13462;50.764;4.332;2022-08-19T12:59:35;6.25;;;3.45;;
25581;SDS011;13462;50.764;4.332;2022-08-19T13:02:03;6.32;;;3.70;;
25581;SDS011;13462;50.764;4.332;2022-08-19T13:04:30;4.70;;;3.25;;
25581;SDS011;13462;50.764;4.332;2022-08-19T13:06:58;4.10;;;2.75;;
25581;SDS011;13462;50.764;4.332;2022-08-19T13:09:23;3.58;;;2.80;;
25581;SDS011;13462;50.764;4.332;2022-08-19T13:11:49;9.20;;;3.40;;
25581;SDS011;13462;50.764;4.332;2022-08-19T13:14:15;3.40;;;3.10;;
25581;SDS011;13462;50.764;4.332;2022-08-19T13:16:40;5.72;;;2.80;;
25581;SDS011;13462;50.764;4.332;2022-08-19T13:19:07;5.60;;;3.58;;
25581;SDS011;13462;50.764;4.332;2022-08-19T13:21:33;3.53;;;3.22;;
25581;SDS011;13462;50.764;4.332;2022-08-19T13:23:59;5.45;;;3.00;;
25581;SDS011;13462;50.764;4.332;2022-08-19T13:26:24;7.03;;;2.65;;
25581;SDS011;13462;50.764;4.332;2022-08-19T13:28:50;5.00;;;3.15;;
25581;SDS011;13462;50.764;4.332;2022-08-19T13:31:35;10.13;;;3.88;;
25581;SDS011;13462;50.764;4.332;2022-08-19T13:34:25;4.97;;;2.80;;
25581;SDS011;13462;50.764;4.332;2022-08-19T13:36:54;3.63;;;2.90;;
25581;SDS011;13462;50.764;4.332;2022-08-19T13:39:20;3.95;;;2.40;;
25581;SDS011;13462;50.764;4.332;2022-08-19T13:41:47;2.83;;;2.05;;
25581;SDS011;13462;50.764;4.332;2022-08-19T13:44:18;5.43;;;2.38;;
25581;SDS011;13462;50.764;4.332;2022-08-19T13:46:44;3.70;;;2.70;;
25581;SDS011;13462;50.764;4.332;2022-08-19T13:49:12;6.50;;;2.22;;
25581;SDS011;13462;50.764;4.332;2022-08-19T13:51:39;6.70;;;2.10;;
25581;SDS011;13462;50.764;4.332;2022-08-19T13:54:06;2.00;;;1.80;;
25581;SDS011;13462;50.764;4.332;2022-08-19T13:56:33;2.20;;;1.73;;
25581;SDS011;13462;50.764;4.332;2022-08-19T13:58:59;11.63;;;2.22;;
25581;SDS011;13462;50.764;4.332;2022-08-19T14:01:25;2.42;;;1.70;;
25581;SDS011;13462;50.764;4.332;2022-08-19T14:03:51;2.42;;;1.50;;
25581;SDS011;13462;50.764;4.332;2022-08-19T14:06:17;5.50;;;2.65;;
25581;SDS011;13462;50.764;4.332;2022-08-19T14:08:43;20.70;;;3.47;;
25581;SDS011;13462;50.764;4.332;2022-08-19T14:11:09;5.40;;;3.10;;
25581;SDS011;13462;50.764;4.332;2022-08-19T14:13:36;3.50;;;2.90;;
25581;SDS011;13462;50.764;4.332;2022-08-19T14:16:05;4.45;;;3.75;;
25581;SDS011;13462;50.764;4.332;2022-08-19T14:18:34;5.28;;;3.33;;
25581;SDS011;13462;50.764;4.332;2022-08-19T14:21:00;4.15;;;3.58;;
25581;SDS011;13462;50.764;4.332;2022-08-19T14:23:27;4.15;;;3.72;;
25581;SDS011;13462;50.764;4.332;2022-08-19T14:25:53;4.72;;;2.85;;
25581;SDS011;13462;50.764;4.332;2022-08-19T14:28:32;6.68;;;3.30;;
25581;SDS011;13462;50.764;4.332;2022-08-19T14:30:58;3.72;;;2.70;;
25581;SDS011;13462;50.764;4.332;2022-08-19T14:33:24;4.35;;;2.78;;
25581;SDS011;13462;50.764;4.332;2022-08-19T14:35:50;4.53;;;2.67;;
25581;SDS011;13462;50.764;4.332;2022-08-19T14:38:16;3.28;;;2.70;;
25581;SDS011;13462;50.764;4.332;2022-08-19T14:40:43;2.70;;;2.50;;
25581;SDS011;13462;50.764;4.332;2022-08-19T14:43:09;2.60;;;2.08;;
25581;SDS011;13462;50.764;4.332;2022-08-19T14:45:37;3.42;;;1.90;;
25581;SDS011;13462;50.764;4.332;2022-08-19T14:48:04;2.05;;;1.83;;
25581;SDS011;13462;50.764;4.332;2022-08-19T14:50:31;1.95;;;1.83;;
25581;SDS011;13462;50.764;4.332;2022-08-19T14:52:57;2.92;;;1.90;;
25581;SDS011;13462;50.764;4.332;2022-08-19T14:57:54;2.53;;;2.03;;
25581;SDS011;13462;50.764;4.332;2022-08-19T15:00:19;6.53;;;2.78;;
25581;SDS011;13462;50.764;4.332;2022-08-19T15:02:46;5.80;;;2.72;;